sensor_id;sensor_type;location;lat;lon;timestamp;pressure;altitude;pressure_sealevel;temperature;humidity
4449;BME280;2237;51.870;6.160;2023-04-07T00:01:35;101283.13;;;11.40;100.00
4449;BME280;2237;51.870;6.160;2023-04-07T00:04:02;101283.94;;;11.42;100.00
4449;BME280;2237;51.870;6.160;2023-04-07T00:06:29;101284.97;;;11.33;100.00
4449;BME280;2237;51.870;6.160;2023-04-07T00:08:55;101291.00;;;11.35;100.00
4449;BME280;2237;51.870;6.160;2023-04-07T00:11:21;101289.31;;;11.34;100.00
4449;BME280;2237;51.870;6.160;2023-04-07T00:13:48;101286.66;;;11.36;100.00
4449;BME280;2237;51.870;6.160;2023-04-07T00:16:14;101293.88;;;11.22;100.00
4449;BME280;2237;51.870;6.160;2023-04-07T00:18:41;101288.63;;;11.23;100.00
4449;BME280;2237;51.870;6.160;2023-04-07T00:21:07;101298.03;;;11.32;100.00
4449;BME280;2237;51.870;6.160;2023-04-07T00:23:33;101291.00;;;11.35;100.00
4449;BME280;2237;51.870;6.160;2023-04-07T00:26:00;101296.50;;;11.20;100.00
4449;BME280;2237;51.870;6.160;2023-04-07T00:28:26;101307.34;;;10.96;100.00
4449;BME280;2237;51.870;6.160;2023-04-07T00:30:53;101299.25;;;11.13;100.00
4449;BME280;2237;51.870;6.160;2023-04-07T00:33:19;101296.53;;;11.19;100.00
4449;BME280;2237;51.870;6.160;2023-04-07T00:35:45;101299.13;;;11.19;100.00
4449;BME280;2237;51.870;6.160;2023-04-07T00:38:12;101293.06;;;11.18;100.00
4449;BME280;2237;51.870;6.160;2023-04-07T00:40:38;101304.44;;;11.13;100.00
4449;BME280;2237;51.870;6.160;2023-04-07T00:43:05;101307.34;;;10.96;100.00
4449;BME280;2237;51.870;6.160;2023-04-07T00:45:31;101300.44;;;10.94;100.00
4449;BME280;2237;51.870;6.160;2023-04-07T00:47:58;101300.53;;;10.88;100.00
4449;BME280;2237;51.870;6.160;2023-04-07T00:50:25;101310.22;;;10.80;100.00
4449;BME280;2237;51.870;6.160;2023-04-07T00:52:52;101301.56;;;10.77;100.00
4449;BME280;2237;51.870;6.160;2023-04-07T00:55:19;101307.16;;;10.53;100.00
4449;BME280;2237;51.870;6.160;2023-04-07T00:57:46;101306.16;;;10.62;100.00
4449;BME280;2237;51.870;6.160;2023-04-07T01:00:12;101309.47;;;10.71;100.00
4449;BME280;2237;51.870;6.160;2023-04-07T01:02:42;101305.00;;;10.80;100.00
4449;BME280;2237;51.870;6.160;2023-04-07T01:05:17;101306.28;;;10.51;100.00
4449;BME280;2237;51.870;6.160;2023-04-07T01:07:57;101302.03;;;10.47;100.00
4449;BME280;2237;51.870;6.160;2023-04-07T01:10:34;101309.72;;;10.56;100.00
4449;BME280;2237;51.870;6.160;2023-04-07T01:13:14;101311.50;;;10.53;100.00
4449;BME280;2237;51.870;6.160;2023-04-07T01:15:46;101317.69;;;10.44;100.00
4449;BME280;2237;51.870;6.160;2023-04-07T01:18:19;101314.13;;;10.48;100.00
4449;BME280;2237;51.870;6.160;2023-04-07T01:20:50;101315.09;;;10.43;100.00
4449;BME280;2237;51.870;6.160;2023-04-07T01:23:48;101316.53;;;10.65;100.00
4449;BME280;2237;51.870;6.160;2023-04-07T01:26:29;101307.66;;;10.76;100.00
4449;BME280;2237;51.870;6.160;2023-04-07T01:29:36;101314.44;;;10.88;100.00
4449;BME280;2237;51.870;6.160;2023-04-07T01:32:04;101309.09;;;10.94;100.00
4449;BME280;2237;51.870;6.160;2023-04-07T01:34:31;101308.31;;;10.91;100.00
4449;BME280;2237;51.870;6.160;2023-04-07T01:37:00;101297.66;;;11.04;100.00
4449;BME280;2237;51.870;6.160;2023-04-07T01:39:27;101301.91;;;11.10;100.00
4449;BME280;2237;51.870;6.160;2023-04-07T01:41:55;101298.25;;;11.20;100.00
4449;BME280;2237;51.870;6.160;2023-04-07T01:44:23;101306.00;;;11.24;100.00
4449;BME280;2237;51.870;6.160;2023-04-07T01:46:52;101305.16;;;11.21;100.00
4449;BME280;2237;51.870;6.160;2023-04-07T01:49:19;101300.81;;;11.23;100.00
4449;BME280;2237;51.870;6.160;2023-04-07T01:51:46;101302.41;;;11.31;100.00
4449;BME280;2237;51.870;6.160;2023-04-07T01:54:16;101301.47;;;11.34;100.00
4449;BME280;2237;51.870;6.160;2023-04-07T01:56:43;101305.94;;;11.27;100.00
4449;BME280;2237;51.870;6.160;2023-04-07T01:59:10;101301.75;;;11.19;100.00
4449;BME280;2237;51.870;6.160;2023-04-07T02:01:36;101308.75;;;11.15;100.00
4449;BME280;2237;51.870;6.160;2023-04-07T02:07:05;101307.97;;;11.09;100.00
4449;BME280;2237;51.870;6.160;2023-04-07T02:09:37;101302.81;;;11.06;100.00
4449;BME280;2237;51.870;6.160;2023-04-07T02:12:05;101310.59;;;11.09;100.00
4449;BME280;2237;51.870;6.160;2023-04-07T02:14:34;101304.50;;;11.10;100.00
4449;BME280;2237;51.870;6.160;2023-04-07T02:17:02;101301.78;;;11.16;100.00
4449;BME280;2237;51.870;6.160;2023-04-07T02:19:29;101303.63;;;11.09;100.00
4449;BME280;2237;51.870;6.160;2023-04-07T02:21:55;101315.97;;;11.00;100.00
4449;BME280;2237;51.870;6.160;2023-04-07T02:24:22;101309.88;;;11.01;100.00
4449;BME280;2237;51.870;6.160;2023-04-07T02:26:48;101304.56;;;11.07;100.00
4449;BME280;2237;51.870;6.160;2023-04-07T02:29:15;101309.81;;;11.04;100.00
4449;BME280;2237;51.870;6.160;2023-04-07T02:31:41;101316.81;;;11.00;100.00
4449;BME280;2237;51.870;6.160;2023-04-07T02:34:08;101316.75;;;11.05;100.00
4449;BME280;2237;51.870;6.160;2023-04-07T02:36:34;101314.22;;;11.00;100.00
4449;BME280;2237;51.870;6.160;2023-04-07T02:39:01;101316.75;;;11.05;100.00
4449;BME280;2237;51.870;6.160;2023-04-07T02:41:27;101319.25;;;11.11;100.00
4449;BME280;2237;51.870;6.160;2023-04-07T02:43:54;101326.59;;;10.86;100.00
4449;BME280;2237;51.870;6.160;2023-04-07T02:46:20;101336.31;;;10.76;100.00
4449;BME280;2237;51.870;6.160;2023-04-07T02:48:47;101338.16;;;10.68;100.00
4449;BME280;2237;51.870;6.160;2023-04-07T02:51:13;101342.31;;;10.82;100.00
4449;BME280;2237;51.870;6.160;2023-04-07T02:53:39;101339.53;;;10.92;100.00
4449;BME280;2237;51.870;6.160;2023-04-07T02:56:06;101335.25;;;10.90;100.00
4449;BME280;2237;51.870;6.160;2023-04-07T02:58:32;101337.84;;;10.90;100.00
4449;BME280;2237;51.870;6.160;2023-04-07T03:00:58;101333.31;;;11.01;100.00
4449;BME280;2237;51.870;6.160;2023-04-07T03:03:25;101331.72;;;10.94;100.00
4449;BME280;2237;51.870;6.160;2023-04-07T03:05:52;101337.75;;;10.96;100.00
4449;BME280;2237;51.870;6.160;2023-04-07T03:08:18;101338.53;;;11.02;100.00
4449;BME280;2237;51.870;6.160;2023-04-07T03:10:44;101333.28;;;11.04;100.00
4449;BME280;2237;51.870;6.160;2023-04-07T03:13:11;101330.63;;;11.07;100.00
4449;BME280;2237;51.870;6.160;2023-04-07T03:15:41;101331.53;;;11.04;100.00
4449;BME280;2237;51.870;6.160;2023-04-07T03:18:08;101330.66;;;11.04;100.00
4449;BME280;2237;51.870;6.160;2023-04-07T03:20:34;101337.56;;;11.08;100.00
4449;BME280;2237;51.870;6.160;2023-04-07T03:23:01;101331.56;;;11.03;100.00
4449;BME280;2237;51.870;6.160;2023-04-07T03:25:28;101331.81;;;10.88;100.00
4449;BME280;2237;51.870;6.160;2023-04-07T03:27:54;101330.06;;;10.88;100.00
4449;BME280;2237;51.870;6.160;2023-04-07T03:30:20;101330.94;;;10.87;100.00
4449;BME280;2237;51.870;6.160;2023-04-07T03:32:47;101335.53;;;10.70;100.00
4449;BME280;2237;51.870;6.160;2023-04-07T03:35:13;101337.69;;;10.41;100.00
4449;BME280;2237;51.870;6.160;2023-04-07T03:37:39;101336.88;;;10.37;100.00
4449;BME280;2237;51.870;6.160;2023-04-07T03:40:06;101333.56;;;10.25;100.00
4449;BME280;2237;51.870;6.160;2023-04-07T03:42:33;101336.06;;;10.31;100.00
4449;BME280;2237;51.870;6.160;2023-04-07T03:44:59;101338.91;;;10.11;100.00
4449;BME280;2237;51.870;6.160;2023-04-07T03:47:25;101347.41;;;10.28;100.00
4449;BME280;2237;51.870;6.160;2023-04-07T03:49:52;101344.78;;;10.30;100.00
4449;BME280;2237;51.870;6.160;2023-04-07T03:52:18;101346.38;;;10.40;100.00
4449;BME280;2237;51.870;6.160;2023-04-07T03:54:45;101344.75;;;10.31;100.00
4449;BME280;2237;51.870;6.160;2023-04-07T03:57:11;101352.63;;;10.25;100.00
4449;BME280;2237;51.870;6.160;2023-04-07T03:59:37;101348.28;;;10.27;100.00
4449;BME280;2237;51.870;6.160;2023-04-07T04:02:04;101355.88;;;10.42;100.00
4449;BME280;2237;51.870;6.160;2023-04-07T04:04:30;101366.09;;;10.57;100.00
4449;BME280;2237;51.870;6.160;2023-04-07T04:06:57;101355.56;;;10.66;100.00
4449;BME280;2237;51.870;6.160;2023-04-07T04:09:23;101353.66;;;10.77;100.00
4449;BME280;2237;51.870;6.160;2023-04-07T04:11:49;101359.66;;;10.84;100.00
4449;BME280;2237;51.870;6.160;2023-04-07T04:14:16;101366.69;;;10.77;100.00
4449;BME280;2237;51.870;6.160;2023-04-07T04:16:42;101357.94;;;10.82;100.00
4449;BME280;2237;51.870;6.160;2023-04-07T04:19:08;101364.81;;;10.87;100.00
4449;BME280;2237;51.870;6.160;2023-04-07T04:21:35;101363.16;;;10.82;100.00
4449;BME280;2237;51.870;6.160;2023-04-07T04:24:01;101365.91;;;10.72;100.00
4449;BME280;2237;51.870;6.160;2023-04-07T04:26:29;101363.47;;;10.60;100.00
4449;BME280;2237;51.870;6.160;2023-04-07T04:28:55;101361.63;;;10.67;100.00
4449;BME280;2237;51.870;6.160;2023-04-07T04:31:22;101364.31;;;10.61;100.00
4449;BME280;2237;51.870;6.160;2023-04-07T04:33:48;101369.50;;;10.64;100.00
4449;BME280;2237;51.870;6.160;2023-04-07T04:36:14;101369.44;;;10.65;100.00
4449;BME280;2237;51.870;6.160;2023-04-07T04:38:41;101365.09;;;10.67;100.00
4449;BME280;2237;51.870;6.160;2023-04-07T04:41:07;101368.47;;;10.74;100.00
4449;BME280;2237;51.870;6.160;2023-04-07T04:43:34;101365.84;;;10.75;100.00
4449;BME280;2237;51.870;6.160;2023-04-07T04:46:00;101364.00;;;10.84;100.00
4449;BME280;2237;51.870;6.160;2023-04-07T04:48:26;101365.63;;;10.91;100.00
4449;BME280;2237;51.870;6.160;2023-04-07T04:50:53;101367.38;;;10.90;100.00
4449;BME280;2237;51.870;6.160;2023-04-07T04:53:19;101370.84;;;10.91;100.00
4449;BME280;2237;51.870;6.160;2023-04-07T04:55:46;101370.84;;;10.91;100.00
4449;BME280;2237;51.870;6.160;2023-04-07T04:58:17;101380.34;;;10.93;100.00
4449;BME280;2237;51.870;6.160;2023-04-07T05:00:44;101375.09;;;10.96;100.00
4449;BME280;2237;51.870;6.160;2023-04-07T05:03:10;101379.53;;;10.90;100.00
4449;BME280;2237;51.870;6.160;2023-04-07T05:05:37;101384.75;;;10.90;100.00
4449;BME280;2237;51.870;6.160;2023-04-07T05:08:04;101386.78;;;10.69;100.00
4449;BME280;2237;51.870;6.160;2023-04-07T05:10:31;101390.09;;;10.81;100.00
4449;BME280;2237;51.870;6.160;2023-04-07T05:12:57;101386.66;;;10.78;100.00
4449;BME280;2237;51.870;6.160;2023-04-07T05:15:23;101386.09;;;10.54;100.00
4449;BME280;2237;51.870;6.160;2023-04-07T05:17:50;101388.72;;;10.54;100.00
4449;BME280;2237;51.870;6.160;2023-04-07T05:20:16;101396.47;;;10.58;100.00
4449;BME280;2237;51.870;6.160;2023-04-07T05:22:42;101400.78;;;10.61;100.00
4449;BME280;2237;51.870;6.160;2023-04-07T05:25:09;101397.31;;;10.60;100.00
4449;BME280;2237;51.870;6.160;2023-04-07T05:27:36;101401.63;;;10.64;100.00
4449;BME280;2237;51.870;6.160;2023-04-07T05:30:02;101400.91;;;10.52;100.00
4449;BME280;2237;51.870;6.160;2023-04-07T05:32:29;101400.97;;;10.47;100.00
4449;BME280;2237;51.870;6.160;2023-04-07T05:34:55;101407.06;;;10.46;100.00
4449;BME280;2237;51.870;6.160;2023-04-07T05:37:22;101404.44;;;10.46;100.00
4449;BME280;2237;51.870;6.160;2023-04-07T05:39:48;101401.72;;;10.55;100.00
4449;BME280;2237;51.870;6.160;2023-04-07T05:42:14;101411.47;;;10.41;100.00
4449;BME280;2237;51.870;6.160;2023-04-07T05:44:41;101410.59;;;10.41;100.00
4449;BME280;2237;51.870;6.160;2023-04-07T05:47:07;101403.66;;;10.41;100.00
4449;BME280;2237;51.870;6.160;2023-04-07T05:49:34;101410.56;;;10.44;100.00
4449;BME280;2237;51.870;6.160;2023-04-07T05:52:01;101413.00;;;10.56;100.00
4449;BME280;2237;51.870;6.160;2023-04-07T05:54:28;101414.72;;;10.58;100.00
4449;BME280;2237;51.870;6.160;2023-04-07T05:56:55;101417.16;;;10.69;100.00
4449;BME280;2237;51.870;6.160;2023-04-07T05:59:21;101413.69;;;10.70;100.00
4449;BME280;2237;51.870;6.160;2023-04-07T06:01:48;101416.94;;;10.86;100.00
4449;BME280;2237;51.870;6.160;2023-04-07T06:04:14;101423.81;;;10.91;100.00
4449;BME280;2237;51.870;6.160;2023-04-07T06:06:41;101419.72;;;10.72;100.00
4449;BME280;2237;51.870;6.160;2023-04-07T06:09:07;101427.38;;;10.84;100.00
4449;BME280;2237;51.870;6.160;2023-04-07T06:11:33;101432.56;;;10.86;100.00
4449;BME280;2237;51.870;6.160;2023-04-07T06:14:00;101434.22;;;10.93;100.00
4449;BME280;2237;51.870;6.160;2023-04-07T06:16:26;101435.91;;;10.97;100.00
4449;BME280;2237;51.870;6.160;2023-04-07T06:18:53;101429.78;;;10.98;100.00
4449;BME280;2237;51.870;6.160;2023-04-07T06:21:19;101430.66;;;10.98;100.00
4449;BME280;2237;51.870;6.160;2023-04-07T06:23:46;101429.66;;;11.07;100.00
4449;BME280;2237;51.870;6.160;2023-04-07T06:26:13;101436.53;;;11.14;100.00
4449;BME280;2237;51.870;6.160;2023-04-07T06:28:39;101438.34;;;11.06;100.00
4449;BME280;2237;51.870;6.160;2023-04-07T06:31:07;101434.69;;;11.19;100.00
4449;BME280;2237;51.870;6.160;2023-04-07T06:33:34;101436.25;;;11.30;100.00
4449;BME280;2237;51.870;6.160;2023-04-07T06:36:00;101448.25;;;11.42;100.00
4449;BME280;2237;51.870;6.160;2023-04-07T06:38:27;101446.41;;;11.49;100.00
4449;BME280;2237;51.870;6.160;2023-04-07T06:40:53;101449.78;;;11.54;100.00
4449;BME280;2237;51.870;6.160;2023-04-07T06:43:20;101452.41;;;11.54;100.00
4449;BME280;2237;51.870;6.160;2023-04-07T06:45:46;101446.34;;;11.52;100.00
4449;BME280;2237;51.870;6.160;2023-04-07T06:48:12;101454.41;;;11.37;100.00
4449;BME280;2237;51.870;6.160;2023-04-07T06:50:39;101460.53;;;11.34;100.00
4449;BME280;2237;51.870;6.160;2023-04-07T06:53:05;101458.84;;;11.31;100.00
4449;BME280;2237;51.870;6.160;2023-04-07T06:55:32;101466.72;;;11.28;100.00
4449;BME280;2237;51.870;6.160;2023-04-07T06:57:58;101467.72;;;11.18;100.00
4449;BME280;2237;51.870;6.160;2023-04-07T07:00:24;101468.56;;;11.20;100.00
4449;BME280;2237;51.870;6.160;2023-04-07T07:02:52;101471.09;;;11.25;100.00
4449;BME280;2237;51.870;6.160;2023-04-07T07:05:18;101462.50;;;11.20;100.00
4449;BME280;2237;51.870;6.160;2023-04-07T07:07:45;101465.97;;;11.19;100.00
4449;BME280;2237;51.870;6.160;2023-04-07T07:10:11;101465.97;;;11.19;100.00
4449;BME280;2237;51.870;6.160;2023-04-07T07:12:38;101471.19;;;11.19;100.00
4449;BME280;2237;51.870;6.160;2023-04-07T07:15:04;101473.69;;;11.26;100.00
4449;BME280;2237;51.870;6.160;2023-04-07T07:17:31;101474.50;;;11.30;100.00
4449;BME280;2237;51.870;6.160;2023-04-07T07:19:58;101486.66;;;11.31;100.00
4449;BME280;2237;51.870;6.160;2023-04-07T07:22:24;101483.44;;;11.14;100.00
4449;BME280;2237;51.870;6.160;2023-04-07T07:24:51;101484.31;;;11.13;100.00
4449;BME280;2237;51.870;6.160;2023-04-07T07:27:17;101484.81;;;11.39;100.00
4449;BME280;2237;51.870;6.160;2023-04-07T07:29:43;101485.41;;;11.56;100.00
4449;BME280;2237;51.870;6.160;2023-04-07T07:32:10;101487.81;;;11.70;100.00
4449;BME280;2237;51.870;6.160;2023-04-07T07:34:36;101487.56;;;11.86;100.00
4449;BME280;2237;51.870;6.160;2023-04-07T07:37:02;101483.44;;;11.72;100.00
4449;BME280;2237;51.870;6.160;2023-04-07T07:39:29;101491.50;;;11.55;100.00
4449;BME280;2237;51.870;6.160;2023-04-07T07:41:55;101492.97;;;11.74;100.00
4449;BME280;2237;51.870;6.160;2023-04-07T07:44:22;101489.66;;;11.63;100.00
4449;BME280;2237;51.870;6.160;2023-04-07T07:46:49;101494.34;;;11.40;100.00
4449;BME280;2237;51.870;6.160;2023-04-07T07:49:16;101499.72;;;11.29;100.00
4449;BME280;2237;51.870;6.160;2023-04-07T07:51:42;101505.72;;;11.36;100.00
4449;BME280;2237;51.870;6.160;2023-04-07T07:54:11;101503.25;;;11.25;100.00
4449;BME280;2237;51.870;6.160;2023-04-07T07:56:37;101499.03;;;11.15;100.00
4449;BME280;2237;51.870;6.160;2023-04-07T07:59:04;101509.19;;;11.35;100.00
4449;BME280;2237;51.870;6.160;2023-04-07T08:01:33;101507.41;;;11.40;100.00
4449;BME280;2237;51.870;6.160;2023-04-07T08:04:00;101504.75;;;11.43;100.00
4449;BME280;2237;51.870;6.160;2023-04-07T08:06:26;101509.97;;;11.42;100.00
4449;BME280;2237;51.870;6.160;2023-04-07T08:08:56;101515.88;;;11.54;100.00
4449;BME280;2237;51.870;6.160;2023-04-07T08:11:23;101517.69;;;11.49;100.00
4449;BME280;2237;51.870;6.160;2023-04-07T08:13:50;101525.44;;;11.54;100.00
4449;BME280;2237;51.870;6.160;2023-04-07T08:16:16;101519.31;;;11.56;100.00
4449;BME280;2237;51.870;6.160;2023-04-07T08:18:43;101529.44;;;11.77;100.00
4449;BME280;2237;51.870;6.160;2023-04-07T08:21:09;101522.50;;;11.78;100.00
4449;BME280;2237;51.870;6.160;2023-04-07T08:23:36;101535.66;;;11.67;100.00
4449;BME280;2237;51.870;6.160;2023-04-07T08:26:02;101534.63;;;11.80;100.00
4449;BME280;2237;51.870;6.160;2023-04-07T08:28:28;101530.00;;;11.98;100.00
4449;BME280;2237;51.870;6.160;2023-04-07T08:30:55;101531.59;;;12.06;100.00
4449;BME280;2237;51.870;6.160;2023-04-07T08:33:21;101537.81;;;11.98;100.00
4449;BME280;2237;51.870;6.160;2023-04-07T08:35:48;101538.44;;;12.10;100.00
4449;BME280;2237;51.870;6.160;2023-04-07T08:38:14;101538.59;;;12.04;100.00
4449;BME280;2237;51.870;6.160;2023-04-07T08:40:41;101546.56;;;11.94;100.00
4449;BME280;2237;51.870;6.160;2023-04-07T08:43:08;101551.22;;;11.76;100.00
4449;BME280;2237;51.870;6.160;2023-04-07T08:45:38;101550.34;;;11.77;100.00
4449;BME280;2237;51.870;6.160;2023-04-07T08:48:15;101547.72;;;11.76;100.00
4449;BME280;2237;51.870;6.160;2023-04-07T08:50:48;101555.69;;;11.65;100.00
4449;BME280;2237;51.870;6.160;2023-04-07T08:53:25;101549.03;;;12.03;100.00
4449;BME280;2237;51.870;6.160;2023-04-07T08:55:55;101552.06;;;12.30;100.00
4449;BME280;2237;51.870;6.160;2023-04-07T08:58:21;101554.41;;;12.44;100.00
4449;BME280;2237;51.870;6.160;2023-04-07T09:00:49;101546.22;;;12.62;100.00
4449;BME280;2237;51.870;6.160;2023-04-07T09:03:16;101537.75;;;12.50;100.00
4449;BME280;2237;51.870;6.160;2023-04-07T09:05:43;101550.59;;;12.62;100.00
4449;BME280;2237;51.870;6.160;2023-04-07T09:08:11;101546.78;;;12.78;100.00
4449;BME280;2237;51.870;6.160;2023-04-07T09:10:38;101548.34;;;12.86;100.00
4449;BME280;2237;51.870;6.160;2023-04-07T09:13:04;101554.22;;;12.97;100.00
4449;BME280;2237;51.870;6.160;2023-04-07T09:15:30;101557.56;;;13.06;100.00
4449;BME280;2237;51.870;6.160;2023-04-07T09:17:57;101570.03;;;12.47;100.00
4449;BME280;2237;51.870;6.160;2023-04-07T09:20:24;101564.19;;;12.31;100.00
4449;BME280;2237;51.870;6.160;2023-04-07T09:22:51;101571.56;;;12.08;100.00
4449;BME280;2237;51.870;6.160;2023-04-07T09:25:22;101577.25;;;11.81;100.00
4449;BME280;2237;51.870;6.160;2023-04-07T09:27:59;101579.88;;;11.79;100.00
4449;BME280;2237;51.870;6.160;2023-04-07T09:30:27;101581.66;;;11.76;100.00
4449;BME280;2237;51.870;6.160;2023-04-07T09:32:54;101583.28;;;11.83;100.00
4449;BME280;2237;51.870;6.160;2023-04-07T09:35:21;101593.91;;;11.72;100.00
4449;BME280;2237;51.870;6.160;2023-04-07T09:38:06;101587.66;;;11.82;100.00
4449;BME280;2237;51.870;6.160;2023-04-07T09:40:33;101585.22;;;11.67;100.00
4449;BME280;2237;51.870;6.160;2023-04-07T09:43:01;101583.19;;;11.89;100.00
4449;BME280;2237;51.870;6.160;2023-04-07T09:45:29;101585.56;;;12.04;100.00
4449;BME280;2237;51.870;6.160;2023-04-07T09:48:20;101585.81;;;12.41;100.00
4449;BME280;2237;51.870;6.160;2023-04-07T09:50:47;101586.47;;;12.54;100.00
4449;BME280;2237;51.870;6.160;2023-04-07T09:53:17;101579.28;;;12.65;100.00
4449;BME280;2237;51.870;6.160;2023-04-07T09:55:45;101587.13;;;12.65;100.00
4449;BME280;2237;51.870;6.160;2023-04-07T09:58:12;101589.41;;;12.81;100.00
4449;BME280;2237;51.870;6.160;2023-04-07T10:00:42;101588.34;;;12.91;100.00
4449;BME280;2237;51.870;6.160;2023-04-07T10:03:09;101586.50;;;12.96;100.00
4449;BME280;2237;51.870;6.160;2023-04-07T10:05:37;101578.34;;;13.13;100.00
4449;BME280;2237;51.870;6.160;2023-04-07T10:08:05;101587.63;;;13.28;100.00
4449;BME280;2237;51.870;6.160;2023-04-07T10:10:31;101583.19;;;13.30;100.00
4449;BME280;2237;51.870;6.160;2023-04-07T10:12:58;101592.81;;;13.29;100.00
4449;BME280;2237;51.870;6.160;2023-04-07T10:15:24;101591.78;;;13.36;100.00
4449;BME280;2237;51.870;6.160;2023-04-07T10:17:52;101583.06;;;13.36;100.00
4449;BME280;2237;51.870;6.160;2023-04-07T10:20:22;101588.00;;;13.10;100.00
4449;BME280;2237;51.870;6.160;2023-04-07T10:22:50;101590.47;;;13.16;100.00
4449;BME280;2237;51.870;6.160;2023-04-07T10:25:20;101588.78;;;13.53;100.00
4449;BME280;2237;51.870;6.160;2023-04-07T10:27:51;101599.38;;;13.87;100.00
4449;BME280;2237;51.870;6.160;2023-04-07T10:30:25;101600.72;;;14.03;100.00
4449;BME280;2237;51.870;6.160;2023-04-07T10:32:53;101595.84;;;13.88;100.00
4449;BME280;2237;51.870;6.160;2023-04-07T10:35:21;101600.34;;;13.83;100.00
4449;BME280;2237;51.870;6.160;2023-04-07T10:40:33;101602.59;;;12.75;100.00
4449;BME280;2237;51.870;6.160;2023-04-07T10:43:00;101607.22;;;12.61;100.00
4449;BME280;2237;51.870;6.160;2023-04-07T10:48:13;101617.50;;;12.20;100.00
4449;BME280;2237;51.870;6.160;2023-04-07T10:50:40;101617.50;;;12.20;100.00
4449;BME280;2237;51.870;6.160;2023-04-07T10:53:11;101617.56;;;12.67;100.00
4449;BME280;2237;51.870;6.160;2023-04-07T10:55:45;101608.72;;;13.19;100.00
4449;BME280;2237;51.870;6.160;2023-04-07T11:03:37;101613.34;;;13.04;100.00
4449;BME280;2237;51.870;6.160;2023-04-07T11:08:47;101620.75;;;13.29;100.00
4449;BME280;2237;51.870;6.160;2023-04-07T11:11:15;101614.03;;;13.16;100.00
4449;BME280;2237;51.870;6.160;2023-04-07T11:13:49;101622.44;;;13.30;100.00
4449;BME280;2237;51.870;6.160;2023-04-07T11:16:18;101626.78;;;13.71;100.00
4449;BME280;2237;51.870;6.160;2023-04-07T11:18:45;101628.41;;;13.36;100.00
4449;BME280;2237;51.870;6.160;2023-04-07T11:21:17;101619.06;;;13.25;100.00
4449;BME280;2237;51.870;6.160;2023-04-07T11:23:45;101624.28;;;13.66;100.00
4449;BME280;2237;51.870;6.160;2023-04-07T11:26:14;101625.66;;;13.82;100.00
4449;BME280;2237;51.870;6.160;2023-04-07T11:28:48;101621.53;;;13.72;100.00
4449;BME280;2237;51.870;6.160;2023-04-07T11:31:27;101631.81;;;13.80;100.00
4449;BME280;2237;51.870;6.160;2023-04-07T11:33:56;101634.41;;;13.41;100.00
4449;BME280;2237;51.870;6.160;2023-04-07T11:36:31;101633.13;;;13.19;100.00
4449;BME280;2237;51.870;6.160;2023-04-07T11:38:59;101630.41;;;12.79;100.00
4449;BME280;2237;51.870;6.160;2023-04-07T11:41:28;101642.34;;;12.43;100.00
4449;BME280;2237;51.870;6.160;2023-04-07T11:44:11;101641.06;;;12.67;100.00
4449;BME280;2237;51.870;6.160;2023-04-07T11:46:56;101642.50;;;12.83;100.00
4449;BME280;2237;51.870;6.160;2023-04-07T11:49:25;101644.47;;;12.72;100.00
4449;BME280;2237;51.870;6.160;2023-04-07T11:52:00;101642.16;;;12.54;100.00
4449;BME280;2237;51.870;6.160;2023-04-07T11:54:37;101644.28;;;12.32;100.00
4449;BME280;2237;51.870;6.160;2023-04-07T11:57:03;101654.97;;;12.69;100.00
4449;BME280;2237;51.870;6.160;2023-04-07T11:59:30;101657.91;;;12.98;100.00
4449;BME280;2237;51.870;6.160;2023-04-07T12:01:58;101643.84;;;13.04;100.00
4449;BME280;2237;51.870;6.160;2023-04-07T12:04:24;101652.03;;;12.86;100.00
4449;BME280;2237;51.870;6.160;2023-04-07T12:06:51;101654.28;;;13.09;100.00
4449;BME280;2237;51.870;6.160;2023-04-07T12:09:32;101655.84;;;13.17;100.00
4449;BME280;2237;51.870;6.160;2023-04-07T12:12:03;101668.25;;;13.08;100.00
4449;BME280;2237;51.870;6.160;2023-04-07T12:14:31;101665.97;;;12.86;100.00
4449;BME280;2237;51.870;6.160;2023-04-07T12:16:57;101670.38;;;12.84;100.00
4449;BME280;2237;51.870;6.160;2023-04-07T12:19:26;101668.09;;;12.66;100.00
4449;BME280;2237;51.870;6.160;2023-04-07T12:21:55;101674.72;;;12.33;100.00
4449;BME280;2237;51.870;6.160;2023-04-07T12:24:22;101674.44;;;12.52;100.00
4449;BME280;2237;51.870;6.160;2023-04-07T12:26:49;101675.94;;;12.66;100.00
4449;BME280;2237;51.870;6.160;2023-04-07T12:29:16;101686.34;;;12.69;100.00
4449;BME280;2237;51.870;6.160;2023-04-07T12:31:46;101686.22;;;12.75;100.00
4449;BME280;2237;51.870;6.160;2023-04-07T12:34:15;101689.97;;;12.61;100.00
4449;BME280;2237;51.870;6.160;2023-04-07T12:36:42;101695.28;;;12.56;100.00
4449;BME280;2237;51.870;6.160;2023-04-07T12:39:08;101696.63;;;12.25;100.00
4449;BME280;2237;51.870;6.160;2023-04-07T12:41:35;101701.13;;;12.17;100.00
4449;BME280;2237;51.870;6.160;2023-04-07T12:44:03;101698.72;;;12.58;100.00
4449;BME280;2237;51.870;6.160;2023-04-07T12:46:29;101702.56;;;12.88;100.00
4449;BME280;2237;51.870;6.160;2023-04-07T12:48:56;101699.81;;;12.95;100.00
4449;BME280;2237;51.870;6.160;2023-04-07T12:51:22;101702.22;;;13.06;100.00
4449;BME280;2237;51.870;6.160;2023-04-07T12:53:49;101711.75;;;12.60;100.00
4449;BME280;2237;51.870;6.160;2023-04-07T12:56:16;101709.66;;;12.80;100.00
4449;BME280;2237;51.870;6.160;2023-04-07T12:58:42;101703.41;;;12.90;100.00
4449;BME280;2237;51.870;6.160;2023-04-07T13:01:08;101705.78;;;12.53;100.00
4449;BME280;2237;51.870;6.160;2023-04-07T13:03:35;101715.59;;;12.37;100.00
4449;BME280;2237;51.870;6.160;2023-04-07T13:06:02;101711.34;;;12.32;100.00
4449;BME280;2237;51.870;6.160;2023-04-07T13:08:29;101711.19;;;12.39;100.00
4449;BME280;2237;51.870;6.160;2023-04-07T13:10:56;101714.72;;;12.37;100.00
4449;BME280;2237;51.870;6.160;2023-04-07T13:13:23;101717.47;;;12.28;100.00
4449;BME280;2237;51.870;6.160;2023-04-07T13:15:49;101722.94;;;12.13;100.00
4449;BME280;2237;51.870;6.160;2023-04-07T13:18:16;101722.75;;;12.26;100.00
4449;BME280;2237;51.870;6.160;2023-04-07T13:20:42;101722.59;;;12.35;100.00